Time;durP1;ratioP1;P1;durP2;ratioP2;P2;SDS_P1;SDS_P2;PMS_P1;PMS_P2;Temp;Humidity;BMP_temperature;BMP_pressure;BME280_temperature;BME280_humidity;BME280_pressure;Samples;Min_cycle;Max_cycle;Signal;HPM_P1;HPM_P2
2022/06/05 00:00:22;;;;;;;0.00;0.00;;;11.80;99.90;;;;;;5018533;28;20129;-63
2022/06/05 00:03:24;;;;;;;0.00;0.00;;;11.90;99.90;;;;;;5019456;28;20053;-63
2022/06/05 00:06:13;;;;;;;0.00;0.00;;;12.00;99.90;;;;;;5018757;28;20045;-63
2022/06/05 00:09:01;;;;;;;0.00;0.00;;;11.90;99.90;;;;;;5019375;28;20073;-62
2022/06/05 00:11:35;;;;;;;0.00;0.00;;;11.90;99.90;;;;;;5019402;28;20045;-62
2022/06/05 00:14:00;;;;;;;0.00;0.00;;;11.90;99.90;;;;;;5020268;28;20037;-62
2022/06/05 00:16:28;;;;;;;0.00;0.00;;;11.90;99.90;;;;;;5022715;28;20099;-62
2022/06/05 00:18:56;;;;;;;0.00;0.00;;;11.90;99.90;;;;;;5023171;28;20045;-62
2022/06/05 00:21:21;;;;;;;0.00;0.00;;;11.90;99.90;;;;;;5022603;28;20045;-62
2022/06/05 00:23:50;;;;;;;0.00;0.00;;;11.90;99.90;;;;;;5022454;28;20086;-63
2022/06/05 00:26:26;;;;;;;0.00;0.00;;;11.90;99.90;;;;;;5023055;28;20263;-60
2022/06/05 00:28:54;;;;;;;0.00;0.00;;;11.80;99.90;;;;;;5023034;28;20124;-62
2022/06/05 00:32:07;;;;;;;0.00;0.00;;;11.80;99.90;;;;;;5022191;28;20111;-62
2022/06/05 00:34:32;;;;;;;0.00;0.00;;;11.80;99.90;;;;;;5011635;28;20076;-62
2022/06/05 00:37:29;;;;;;;0.00;0.00;;;11.80;99.90;;;;;;5022244;28;20113;-62
2022/06/05 00:40:10;;;;;;;0.00;0.00;;;11.70;99.90;;;;;;5022091;28;20488;-63
2022/06/05 00:42:36;;;;;;;0.00;0.00;;;11.70;99.90;;;;;;5023066;28;20830;-62
2022/06/05 00:45:09;;;;;;;0.00;0.00;;;11.80;99.90;;;;;;5024925;28;20052;-62
2022/06/05 00:47:36;;;;;;;0.00;0.00;;;11.80;99.90;;;;;;5034573;28;20273;-62
2022/06/05 00:50:16;;;;;;;0.00;0.00;;;11.80;99.90;;;;;;5042657;28;20053;-62
2022/06/05 00:52:47;;;;;;;0.00;0.00;;;11.80;99.90;;;;;;5041767;28;20049;-59
2022/06/05 00:55:14;;;;;;;0.00;0.00;;;11.80;99.90;;;;;;5043401;28;20051;-62
2022/06/05 00:57:40;;;;;;;0.00;0.00;;;11.80;99.90;;;;;;5042399;28;20044;-62
2022/06/05 01:00:15;;;;;;;0.00;0.00;;;11.80;99.90;;;;;;5041734;28;20055;-62
2022/06/05 01:02:44;;;;;;;0.00;0.00;;;11.80;99.90;;;;;;5042222;28;20124;-62
2022/06/05 01:05:12;;;;;;;0.10;0.00;;;11.80;99.90;;;;;;5042753;28;20228;-63
2022/06/05 01:07:38;;;;;;;0.00;0.00;;;11.80;99.90;;;;;;5040709;28;20041;-62
2022/06/05 01:10:05;;;;;;;0.00;0.00;;;11.80;99.90;;;;;;5042119;28;20067;-62
2022/06/05 01:12:53;;;;;;;0.00;0.00;;;11.90;99.90;;;;;;5042039;28;20076;-62
2022/06/05 01:15:46;;;;;;;0.00;0.00;;;11.90;99.90;;;;;;5042276;28;20044;-62
2022/06/05 01:18:16;;;;;;;0.00;0.00;;;11.90;99.90;;;;;;5041966;28;20254;-63
2022/06/05 01:21:19;;;;;;;0.00;0.00;;;11.80;99.90;;;;;;5041619;28;20052;-62
2022/06/05 01:24:22;;;;;;;0.00;0.00;;;11.80;99.90;;;;;;5040742;28;20128;-62
2022/06/05 01:27:01;;;;;;;0.00;0.00;;;11.90;99.90;;;;;;5033730;28;20060;-63
2022/06/05 01:29:37;;;;;;;0.00;0.00;;;11.80;99.90;;;;;;5040374;28;20121;-62
2022/06/05 01:32:14;;;;;;;0.80;0.10;;;11.80;99.90;;;;;;5041358;28;20041;-63
2022/06/05 01:34:48;;;;;;;0.00;0.00;;;11.80;99.90;;;;;;5042026;28;20128;-63
2022/06/05 01:37:32;;;;;;;0.00;0.00;;;11.80;99.90;;;;;;5041585;28;20453;-62
2022/06/05 01:40:24;;;;;;;0.00;0.00;;;11.80;99.90;;;;;;5041528;28;20484;-62
2022/06/05 01:42:57;;;;;;;0.00;0.00;;;11.80;99.90;;;;;;5041154;28;20056;-63
2022/06/05 01:45:36;;;;;;;0.00;0.00;;;11.80;99.90;;;;;;5034823;28;20047;-63
2022/06/05 01:48:05;;;;;;;0.00;0.00;;;11.80;99.90;;;;;;5025245;28;20132;-63
2022/06/05 01:50:42;;;;;;;0.00;0.00;;;11.80;99.90;;;;;;5019184;28;20049;-63
2022/06/05 01:53:15;;;;;;;0.00;0.00;;;11.80;99.90;;;;;;5021685;28;20092;-62
2022/06/05 01:56:01;;;;;;;0.00;0.00;;;11.80;99.90;;;;;;5021389;28;20671;-63
2022/06/05 01:58:36;;;;;;;0.00;0.00;;;11.80;99.90;;;;;;5021644;28;20056;-62
2022/06/05 02:01:07;;;;;;;0.00;0.00;;;11.70;99.90;;;;;;5020687;28;20049;-62
2022/06/05 02:03:48;;;;;;;0.00;0.00;;;11.80;99.90;;;;;;5021108;28;20127;-62
2022/06/05 02:06:20;;;;;;;0.00;0.00;;;11.70;99.90;;;;;;5020622;28;20045;-62
2022/06/05 02:08:51;;;;;;;0.00;0.00;;;11.70;99.90;;;;;;5021866;28;20416;-62
2022/06/05 02:11:19;;;;;;;0.00;0.00;;;11.70;99.90;;;;;;5019790;28;20057;-63
2022/06/05 02:13:45;;;;;;;0.00;0.00;;;11.70;99.90;;;;;;5021123;28;20133;-63
2022/06/05 02:16:11;;;;;;;0.00;0.00;;;11.70;99.90;;;;;;5021765;28;20090;-63
2022/06/05 02:18:37;;;;;;;0.00;0.00;;;11.60;99.90;;;;;;5021061;28;20068;-63
2022/06/05 02:21:04;;;;;;;0.00;0.00;;;11.60;99.90;;;;;;5019989;28;20069;-63
2022/06/05 02:23:34;;;;;;;0.00;0.00;;;11.60;99.90;;;;;;5020613;28;20056;-62
2022/06/05 02:26:04;;;;;;;0.00;0.00;;;11.60;99.90;;;;;;5020831;28;20056;-63
2022/06/05 02:28:30;;;;;;;0.00;0.00;;;11.60;99.90;;;;;;5021093;28;20053;-63
2022/06/05 02:31:11;;;;;;;0.00;0.00;;;12.00;99.90;;;;;;5020566;28;20099;-63
2022/06/05 02:34:18;;;;;;;0.00;0.00;;;11.60;99.90;;;;;;5019654;28;20049;-63
2022/06/05 02:36:55;;;;;;;0.00;0.00;;;11.60;99.90;;;;;;4977854;28;20058;-62
2022/06/05 02:39:42;;;;;;;0.00;0.00;;;11.60;99.90;;;;;;5016196;28;20408;-63
2022/06/05 02:42:45;;;;;;;0.00;0.00;;;11.70;99.90;;;;;;5020808;28;20041;-62
2022/06/05 02:45:22;;;;;;;0.00;0.00;;;11.70;99.90;;;;;;5024414;28;20129;-63
2022/06/05 02:48:10;;;;;;;0.00;0.00;;;11.70;99.90;;;;;;5026011;28;20463;-64
2022/06/05 02:50:43;;;;;;;0.00;0.00;;;11.70;99.90;;;;;;5019682;28;20088;-63
2022/06/05 02:53:10;;;;;;;0.00;0.00;;;11.70;99.90;;;;;;5019513;28;20045;-63
2022/06/05 02:55:36;;;;;;;0.00;0.00;;;11.70;99.90;;;;;;5020380;28;20364;-62
2022/06/05 02:58:02;;;;;;;0.00;0.00;;;11.70;99.90;;;;;;5020561;28;20329;-63
2022/06/05 03:00:30;;;;;;;0.00;0.00;;;11.70;99.90;;;;;;5018623;28;20042;-62
2022/06/05 03:05:41;;;;;;;;;;;11.70;99.90;;;;;;5020330;28;20049;-60
2022/06/05 03:08:11;;;;;;;0.00;0.00;;;11.80;99.90;;;;;;5019850;28;20016;-63
2022/06/05 03:10:37;;;;;;;0.00;0.00;;;11.80;99.90;;;;;;5020239;28;20052;-62
2022/06/05 03:13:03;;;;;;;0.00;0.00;;;11.80;99.90;;;;;;5020360;28;20084;-62
2022/06/05 03:15:30;;;;;;;0.00;0.00;;;11.80;99.90;;;;;;5019655;28;20459;-62
2022/06/05 03:17:55;;;;;;;0.00;0.00;;;11.90;99.90;;;;;;5020148;28;20084;-63
2022/06/05 03:20:22;;;;;;;0.00;0.00;;;11.90;99.90;;;;;;5019326;28;20076;-63
2022/06/05 03:22:47;;;;;;;0.05;0.00;;;11.90;99.90;;;;;;5019999;28;20038;-62
2022/06/05 03:25:19;;;;;;;0.00;0.00;;;11.90;99.90;;;;;;5020055;28;20118;-63
2022/06/05 03:27:45;;;;;;;0.00;0.00;;;11.90;99.90;;;;;;5020135;28;20044;-62
2022/06/05 03:30:13;;;;;;;0.00;0.00;;;11.90;99.90;;;;;;5018995;28;20049;-63
2022/06/05 03:32:38;;;;;;;0.00;0.00;;;11.80;99.90;;;;;;5019098;28;20056;-62
2022/06/05 03:35:05;;;;;;;0.00;0.00;;;11.90;99.90;;;;;;5020239;28;20034;-62
2022/06/05 03:37:32;;;;;;;0.00;0.00;;;11.90;99.90;;;;;;5019269;28;20070;-62
2022/06/05 03:39:58;;;;;;;0.00;0.00;;;11.80;99.90;;;;;;5020054;28;20121;-63
2022/06/05 03:42:24;;;;;;;0.22;0.22;;;11.90;99.90;;;;;;5019386;28;20052;-62
2022/06/05 03:44:50;;;;;;;0.55;0.55;;;12.00;99.90;;;;;;5022069;28;20303;-63
2022/06/05 03:47:16;;;;;;;0.00;0.00;;;12.00;99.90;;;;;;5028208;28;20077;-63
2022/06/05 03:49:41;;;;;;;0.00;0.00;;;12.10;99.90;;;;;;5021749;28;20053;-60
2022/06/05 03:52:09;;;;;;;0.00;0.00;;;12.10;99.90;;;;;;5021757;28;20305;-62
2022/06/05 03:54:35;;;;;;;0.00;0.00;;;12.10;99.90;;;;;;5023775;28;20073;-63
2022/06/05 03:57:02;;;;;;;0.00;0.00;;;12.10;99.90;;;;;;5024117;28;20613;-62
2022/06/05 03:59:28;;;;;;;0.00;0.00;;;12.10;99.90;;;;;;5022755;28;20080;-62
2022/06/05 04:01:53;;;;;;;0.00;0.00;;;12.10;99.90;;;;;;5023640;28;20077;-63
2022/06/05 04:04:19;;;;;;;0.00;0.00;;;12.10;99.90;;;;;;5023202;28;20049;-63
2022/06/05 04:06:45;;;;;;;0.00;0.00;;;12.20;99.90;;;;;;5022840;28;20492;-62
2022/06/05 04:09:10;;;;;;;0.00;0.00;;;12.20;99.90;;;;;;5023679;28;20077;-63
2022/06/05 04:11:38;;;;;;;0.00;0.00;;;12.20;99.90;;;;;;5023074;28;20211;-63
2022/06/05 04:14:05;;;;;;;0.00;0.00;;;12.20;99.90;;;;;;5023526;28;20045;-62
2022/06/05 04:16:32;;;;;;;0.00;0.00;;;12.20;99.90;;;;;;5022369;28;20048;-62
2022/06/05 04:18:59;;;;;;;0.00;0.00;;;12.30;99.90;;;;;;5021898;28;20046;-62
2022/06/05 04:21:28;;;;;;;0.00;0.00;;;12.30;99.90;;;;;;5021081;28;20046;-63
2022/06/05 04:23:54;;;;;;;0.00;0.00;;;12.30;99.90;;;;;;5022524;28;20060;-63
2022/06/05 04:26:23;;;;;;;0.00;0.00;;;12.40;99.90;;;;;;5022967;28;20103;-63
2022/06/05 04:28:50;;;;;;;0.00;0.00;;;12.40;99.90;;;;;;5021984;28;20037;-62
2022/06/05 04:31:24;;;;;;;0.00;0.00;;;12.50;99.90;;;;;;5022443;28;20042;-63
2022/06/05 04:33:52;;;;;;;0.00;0.00;;;12.40;99.90;;;;;;5023156;28;20508;-63
2022/06/05 04:36:18;;;;;;;0.00;0.00;;;12.40;99.90;;;;;;5022162;28;20046;-63
2022/06/05 04:38:44;;;;;;;0.00;0.00;;;12.50;99.90;;;;;;5022738;28;20641;-64
2022/06/05 04:41:11;;;;;;;0.00;0.00;;;12.50;99.90;;;;;;5023408;28;20033;-63
2022/06/05 04:43:37;;;;;;;0.00;0.00;;;12.60;99.90;;;;;;5022555;28;20101;-63
2022/06/05 04:46:04;;;;;;;0.00;0.00;;;12.70;99.90;;;;;;5033382;28;20049;-62
2022/06/05 04:48:29;;;;;;;0.00;0.00;;;12.80;99.90;;;;;;5022510;28;20045;-63
2022/06/05 04:50:55;;;;;;;0.00;0.00;;;13.00;99.90;;;;;;5022083;28;20518;-63
2022/06/05 04:53:21;;;;;;;0.00;0.00;;;13.20;99.90;;;;;;5022428;28;20042;-64
2022/06/05 04:55:46;;;;;;;0.00;0.00;;;13.60;99.90;;;;;;5022370;28;20072;-63
2022/06/05 04:58:12;;;;;;;0.00;0.00;;;13.80;99.90;;;;;;5021876;28;20085;-63
2022/06/05 05:00:39;;;;;;;0.00;0.00;;;14.00;99.90;;;;;;5022540;28;20045;-63
2022/06/05 05:03:04;;;;;;;0.00;0.00;;;14.00;99.90;;;;;;5022583;28;20104;-62
2022/06/05 05:05:30;;;;;;;0.00;0.00;;;14.00;99.90;;;;;;5021155;28;20491;-63
2022/06/05 05:07:56;;;;;;;0.00;0.00;;;13.90;99.90;;;;;;5021341;28;20077;-63
2022/06/05 05:10:22;;;;;;;0.00;0.00;;;13.90;99.90;;;;;;5022518;28;20050;-63
2022/06/05 05:12:47;;;;;;;0.00;0.00;;;13.90;99.90;;;;;;5022456;28;20139;-63
2022/06/05 05:15:13;;;;;;;0.00;0.00;;;13.70;99.90;;;;;;5020810;28;20041;-64
2022/06/05 05:17:39;;;;;;;0.00;0.00;;;13.80;99.90;;;;;;5021881;28;20161;-63
2022/06/05 05:20:05;;;;;;;0.00;0.00;;;13.80;99.90;;;;;;5021275;28;20126;-62
2022/06/05 05:22:37;;;;;;;0.00;0.00;;;13.90;99.90;;;;;;5021707;28;20140;-63
2022/06/05 05:25:06;;;;;;;0.00;0.00;;;13.90;99.90;;;;;;5021945;28;20057;-62
2022/06/05 05:27:32;;;;;;;0.00;0.00;;;14.10;99.90;;;;;;5022024;28;20107;-63
2022/06/05 05:29:58;;;;;;;0.00;0.00;;;14.30;99.90;;;;;;5021613;28;20047;-64
2022/06/05 05:32:23;;;;;;;0.00;0.00;;;14.70;99.90;;;;;;5022137;28;20045;-63
2022/06/05 05:34:49;;;;;;;0.00;0.00;;;14.90;99.90;;;;;;5021921;28;20041;-63
2022/06/05 05:37:15;;;;;;;0.00;0.00;;;15.20;99.90;;;;;;5022203;28;20854;-63
2022/06/05 05:42:25;;;;;;;0.00;0.00;;;15.90;99.90;;;;;;5021690;28;20107;-63
2022/06/05 05:44:51;;;;;;;0.00;0.00;;;16.30;99.90;;;;;;5022001;28;20319;-64
2022/06/05 05:47:28;;;;;;;0.00;0.00;;;16.60;99.90;;;;;;5030416;28;20432;-64
2022/06/05 05:49:55;;;;;;;0.00;0.00;;;16.70;99.90;;;;;;5020848;28;20610;-63
2022/06/05 05:52:22;;;;;;;0.00;0.00;;;16.80;99.90;;;;;;5020578;28;20403;-63
2022/06/05 05:54:48;;;;;;;0.00;0.00;;;16.60;99.90;;;;;;5021886;28;20819;-62
2022/06/05 05:57:14;;;;;;;0.00;0.00;;;16.60;99.90;;;;;;5021889;28;20081;-63
2022/06/05 05:59:40;;;;;;;0.00;0.00;;;16.40;99.90;;;;;;5021475;28;20088;-63
2022/06/05 06:02:11;;;;;;;0.00;0.00;;;16.40;99.90;;;;;;5020821;28;20049;-63
2022/06/05 06:04:37;;;;;;;0.00;0.00;;;16.40;99.90;;;;;;5021221;28;20063;-63
2022/06/05 06:07:03;;;;;;;0.10;0.10;;;16.30;99.90;;;;;;5020799;28;20195;-63
2022/06/05 06:09:29;;;;;;;0.10;0.00;;;16.20;99.90;;;;;;5019194;28;20509;-63
2022/06/05 06:11:55;;;;;;;0.00;0.00;;;16.10;99.90;;;;;;5021038;28;20489;-63
2022/06/05 06:14:21;;;;;;;0.10;0.10;;;16.10;99.90;;;;;;5021228;28;20550;-63
2022/06/05 06:16:46;;;;;;;0.00;0.00;;;16.10;99.90;;;;;;5020994;28;20155;-63
2022/06/05 06:19:12;;;;;;;0.00;0.00;;;16.00;99.90;;;;;;5020689;28;20463;-62
2022/06/05 06:21:38;;;;;;;0.00;0.00;;;16.00;99.90;;;;;;5020377;28;20602;-64
2022/06/05 06:24:03;;;;;;;0.00;0.00;;;15.90;99.90;;;;;;5020949;28;20578;-63
2022/06/05 06:26:29;;;;;;;0.00;0.00;;;16.00;99.90;;;;;;5020189;28;20524;-63
2022/06/05 06:28:55;;;;;;;0.00;0.00;;;15.90;99.90;;;;;;5019457;28;20041;-63
2022/06/05 06:31:21;;;;;;;0.00;0.00;;;16.00;99.90;;;;;;5020731;28;20488;-63
2022/06/05 06:33:48;;;;;;;0.00;0.00;;;16.00;99.90;;;;;;5019522;28;20420;-64
2022/06/05 06:36:15;;;;;;;0.00;0.00;;;16.10;99.90;;;;;;5019869;28;20041;-64
2022/06/05 06:38:41;;;;;;;0.00;0.00;;;16.10;99.90;;;;;;5021016;28;20053;-63
2022/06/05 06:41:10;;;;;;;0.00;0.00;;;16.10;99.90;;;;;;5019294;28;20504;-63
2022/06/05 06:43:36;;;;;;;0.00;0.00;;;16.10;99.90;;;;;;5019771;28;20061;-64
2022/06/05 06:46:02;;;;;;;0.00;0.00;;;16.10;99.90;;;;;;5030765;28;20045;-63
2022/06/05 06:48:28;;;;;;;0.00;0.00;;;16.30;99.90;;;;;;5018923;28;20056;-63
2022/06/05 06:50:59;;;;;;;0.00;0.00;;;16.40;99.90;;;;;;5019846;28;20041;-63
2022/06/05 06:53:26;;;;;;;0.05;0.00;;;16.50;99.90;;;;;;5019937;28;20094;-64
2022/06/05 06:55:52;;;;;;;0.00;0.00;;;16.60;99.90;;;;;;5020684;28;20116;-64
2022/06/05 06:58:18;;;;;;;0.00;0.00;;;16.60;99.90;;;;;;5020277;28;20635;-63
2022/06/05 07:00:44;;;;;;;0.00;0.00;;;16.70;99.90;;;;;;5020110;28;20042;-63
2022/06/05 07:03:09;;;;;;;0.00;0.00;;;16.70;99.90;;;;;;5020008;28;20072;-63
2022/06/05 07:05:36;;;;;;;0.00;0.00;;;17.00;99.90;;;;;;5019586;28;20646;-63
2022/06/05 07:08:02;;;;;;;0.00;0.00;;;17.20;99.90;;;;;;5020435;28;20045;-63
2022/06/05 07:10:28;;;;;;;0.00;0.00;;;17.50;99.90;;;;;;5019329;28;20083;-64
2022/06/05 07:12:54;;;;;;;0.00;0.00;;;17.80;99.90;;;;;;5020020;28;20558;-64
2022/06/05 07:15:20;;;;;;;0.00;0.00;;;18.00;99.90;;;;;;5020019;28;20041;-63
2022/06/05 07:17:46;;;;;;;0.00;0.00;;;18.30;99.90;;;;;;5018293;28;20098;-64
2022/06/05 07:20:12;;;;;;;0.00;0.00;;;18.40;99.90;;;;;;5019459;28;20049;-63
2022/06/05 07:22:38;;;;;;;0.00;0.00;;;18.40;99.90;;;;;;5019824;28;20090;-65
2022/06/05 07:25:05;;;;;;;0.00;0.00;;;18.70;99.90;;;;;;5019615;28;20119;-63
2022/06/05 07:27:30;;;;;;;0.00;0.00;;;18.80;99.90;;;;;;5019203;28;20056;-63
2022/06/05 07:29:56;;;;;;;0.00;0.00;;;18.80;99.90;;;;;;5019827;28;20619;-64
2022/06/05 07:32:22;;;;;;;0.00;0.00;;;19.20;99.90;;;;;;5019838;28;20152;-63
2022/06/05 07:34:49;;;;;;;0.00;0.00;;;19.40;99.90;;;;;;5018540;28;20073;-64
2022/06/05 07:37:15;;;;;;;0.00;0.00;;;19.50;99.90;;;;;;5018904;28;20115;-63
2022/06/05 07:39:42;;;;;;;0.00;0.00;;;19.50;99.90;;;;;;5018895;28;20045;-63
2022/06/05 07:42:09;;;;;;;0.00;0.00;;;19.50;99.90;;;;;;5019755;28;20183;-64
2022/06/05 07:44:36;;;;;;;0.00;0.00;;;19.40;99.90;;;;;;5021203;28;20041;-63
2022/06/05 07:47:09;;;;;;;0.00;0.00;;;19.50;99.90;;;;;;5028607;28;20055;-63
2022/06/05 07:49:39;;;;;;;0.00;0.00;;;19.60;99.90;;;;;;5017732;28;20509;-63
2022/06/05 07:54:49;;;;;;;0.10;0.10;;;20.10;99.90;;;;;;5019876;28;20076;-64
2022/06/05 07:57:18;;;;;;;0.13;0.13;;;20.00;99.90;;;;;;5019168;28;20091;-64
2022/06/05 07:59:46;;;;;;;0.00;0.00;;;20.20;99.90;;;;;;5019944;28;20049;-64
2022/06/05 08:02:18;;;;;;;0.00;0.00;;;20.30;99.90;;;;;;5020270;28;20053;-63
2022/06/05 08:04:45;;;;;;;0.00;0.00;;;20.10;99.90;;;;;;5018463;28;20057;-67
2022/06/05 08:07:14;;;;;;;0.10;0.00;;;20.20;99.90;;;;;;5019840;28;20042;-63
2022/06/05 08:09:41;;;;;;;0.00;0.00;;;20.20;99.90;;;;;;5019237;28;20441;-63
2022/06/05 08:12:09;;;;;;;0.00;0.00;;;20.30;99.90;;;;;;5019840;28;20053;-63
2022/06/05 08:14:35;;;;;;;0.00;0.00;;;20.30;99.90;;;;;;5018163;28;20044;-64
2022/06/05 08:17:08;;;;;;;0.20;0.10;;;20.50;99.90;;;;;;5019819;28;20487;-63
2022/06/05 08:19:33;;;;;;;0.32;0.30;;;20.70;99.90;;;;;;5018388;28;20037;-63
2022/06/05 08:21:59;;;;;;;0.10;0.10;;;20.60;99.90;;;;;;5017401;28;20107;-64
2022/06/05 08:24:25;;;;;;;0.00;0.00;;;20.60;99.90;;;;;;5019022;28;20114;-64
2022/06/05 08:26:51;;;;;;;0.00;0.00;;;20.80;99.90;;;;;;5019598;28;20037;-64
2022/06/05 08:29:18;;;;;;;0.00;0.00;;;20.80;99.90;;;;;;5018885;28;20038;-64
2022/06/05 08:31:43;;;;;;;0.00;0.00;;;20.90;99.90;;;;;;5019860;28;20488;-64
2022/06/05 08:34:10;;;;;;;0.00;0.00;;;21.00;99.90;;;;;;5019488;28;20136;-64
2022/06/05 08:36:36;;;;;;;0.10;0.10;;;21.10;99.90;;;;;;5021923;28;20048;-64
2022/06/05 08:41:53;;;;;;;;;;;21.40;99.90;;;;;;5023353;28;20042;-64
2022/06/05 08:44:31;;;;;;;0.00;0.00;;;21.40;99.90;;;;;;5022748;28;19972;-64
2022/06/05 08:47:18;;;;;;;0.08;0.05;;;21.60;99.90;;;;;;5031449;28;20048;-58
2022/06/05 08:49:48;;;;;;;0.00;0.00;;;21.40;99.90;;;;;;5021899;28;20205;-64
2022/06/05 08:52:39;;;;;;;0.00;0.00;;;21.50;99.90;;;;;;5022987;28;20178;-65
2022/06/05 08:55:24;;;;;;;0.00;0.00;;;21.50;99.90;;;;;;5020505;28;20059;-65
2022/06/05 08:57:54;;;;;;;0.00;0.00;;;21.40;99.90;;;;;;5021621;28;20057;-65
2022/06/05 09:00:29;;;;;;;0.00;0.00;;;21.40;99.90;;;;;;5022072;28;20045;-66
2022/06/05 09:03:19;;;;;;;0.00;0.00;;;21.50;99.90;;;;;;5022311;28;20057;-61
2022/06/05 09:05:48;;;;;;;0.00;0.00;;;21.40;99.90;;;;;;5021607;28;20455;-66
2022/06/05 09:08:17;;;;;;;0.00;0.00;;;21.40;99.90;;;;;;5022617;28;20084;-64
2022/06/05 09:10:48;;;;;;;0.00;0.00;;;21.40;99.90;;;;;;5022561;28;20116;-67
2022/06/05 09:13:14;;;;;;;1.08;0.10;;;21.50;99.90;;;;;;5021918;28;20041;-67
2022/06/05 09:15:49;;;;;;;0.00;0.00;;;21.50;99.90;;;;;;5021321;28;20050;-67
2022/06/05 09:18:18;;;;;;;0.00;0.00;;;21.50;99.90;;;;;;5022250;28;20088;-67
2022/06/05 09:20:53;;;;;;;0.00;0.00;;;21.40;99.90;;;;;;5020994;28;20077;-67
2022/06/05 09:23:33;;;;;;;0.00;0.00;;;21.50;99.90;;;;;;5021806;28;20080;-67
2022/06/05 09:26:02;;;;;;;0.00;0.00;;;21.60;99.90;;;;;;5021612;28;20813;-67
2022/06/05 09:28:33;;;;;;;0.00;0.00;;;21.60;99.90;;;;;;5021759;28;20107;-67
2022/06/05 09:31:32;;;;;;;0.05;0.00;;;21.80;99.90;;;;;;5021850;28;20135;-67
2022/06/05 09:34:02;;;;;;;0.00;0.00;;;22.00;99.90;;;;;;5021963;28;20152;-67
2022/06/05 09:36:30;;;;;;;0.00;0.00;;;22.10;99.90;;;;;;5020454;28;20045;-67
2022/06/05 09:39:25;;;;;;;0.00;0.00;;;22.40;99.90;;;;;;5022119;28;20041;-67
2022/06/05 09:42:05;;;;;;;0.00;0.00;;;22.60;99.90;;;;;;5019747;28;20057;-67
2022/06/05 09:45:01;;;;;;;0.00;0.00;;;22.40;99.90;;;;;;5022638;28;20056;-68
2022/06/05 09:47:33;;;;;;;0.10;0.08;;;22.60;99.90;;;;;;5028112;28;20053;-68
2022/06/05 09:50:04;;;;;;;0.00;0.00;;;22.60;99.90;;;;;;5021108;28;20539;-68
2022/06/05 09:52:31;;;;;;;0.00;0.00;;;22.60;99.90;;;;;;5021001;28;20042;-67
2022/06/05 09:55:15;;;;;;;0.10;0.00;;;22.60;99.90;;;;;;5021453;28;20096;-67
2022/06/05 09:58:25;;;;;;;0.57;0.25;;;22.90;99.90;;;;;;5021984;28;20042;-67
2022/06/05 10:00:56;;;;;;;0.10;0.00;;;23.10;99.90;;;;;;5021383;28;20389;-67
2022/06/05 10:03:29;;;;;;;0.05;0.05;;;23.10;99.90;;;;;;5020921;28;20057;-68
2022/06/05 10:06:11;;;;;;;0.00;0.00;;;23.20;99.90;;;;;;5020504;28;20581;-69
2022/06/05 10:08:43;;;;;;;0.00;0.00;;;23.40;99.90;;;;;;5020899;28;20045;-68
2022/06/05 10:11:26;;;;;;;0.00;0.00;;;23.40;99.90;;;;;;5021553;28;20255;-67
2022/06/05 10:14:02;;;;;;;0.00;0.00;;;23.50;99.90;;;;;;5020671;28;20068;-68
2022/06/05 10:16:36;;;;;;;0.03;0.03;;;23.70;99.90;;;;;;5020879;28;20408;-67
2022/06/05 10:19:10;;;;;;;0.00;0.00;;;23.70;99.90;;;;;;5020479;28;20246;-67
2022/06/05 10:21:42;;;;;;;0.15;0.10;;;23.70;99.90;;;;;;5020909;28;20106;-67
2022/06/05 10:24:27;;;;;;;0.00;0.00;;;23.60;99.90;;;;;;5020866;28;20046;-68
2022/06/05 10:26:57;;;;;;;0.00;0.00;;;23.70;99.90;;;;;;5021078;28;20191;-68
2022/06/05 10:29:31;;;;;;;0.00;0.00;;;23.80;99.90;;;;;;5020677;28;20033;-68
2022/06/05 10:32:05;;;;;;;0.00;0.00;;;23.90;99.90;;;;;;5020384;28;20443;-68
2022/06/05 10:34:43;;;;;;;0.05;0.00;;;24.10;99.90;;;;;;5019847;28;20059;-67
2022/06/05 10:37:18;;;;;;;0.10;0.10;;;24.00;99.90;;;;;;5019073;28;20088;-68
2022/06/05 10:40:08;;;;;;;0.05;0.05;;;24.10;99.90;;;;;;5020956;28;20045;-67
2022/06/05 10:42:52;;;;;;;0.10;0.03;;;24.30;99.90;;;;;;5020147;28;20050;-68
2022/06/05 10:45:34;;;;;;;0.00;0.00;;;24.40;99.90;;;;;;5024878;28;20045;-68
2022/06/05 10:48:22;;;;;;;0.00;0.00;;;24.50;99.90;;;;;;5024124;28;20045;-67
2022/06/05 10:51:08;;;;;;;0.00;0.00;;;24.70;99.90;;;;;;5019849;28;20051;-68
2022/06/05 10:53:52;;;;;;;0.00;0.00;;;24.80;99.90;;;;;;5020464;28;20096;-68
2022/06/05 10:56:50;;;;;;;0.00;0.00;;;24.60;99.90;;;;;;5019890;28;20085;-67
2022/06/05 10:59:34;;;;;;;0.00;0.00;;;24.50;99.90;;;;;;5020259;28;20075;-68
2022/06/05 11:02:12;;;;;;;;;;;24.50;99.90;;;;;;5019541;28;20139;-68
2022/06/05 11:04:53;;;;;;;0.00;0.00;;;24.60;99.90;;;;;;5019220;28;19928;-67
2022/06/05 11:07:26;;;;;;;0.00;0.00;;;24.70;99.90;;;;;;5019868;28;20096;-68
2022/06/05 11:10:02;;;;;;;0.00;0.00;;;24.70;99.90;;;;;;5020322;28;20049;-68
2022/06/05 11:15:39;;;;;;;0.00;0.00;;;24.70;99.90;;;;;;5020083;28;20061;-68
2022/06/05 11:18:08;;;;;;;0.28;0.00;;;24.80;99.90;;;;;;5020322;28;20050;-68
2022/06/05 11:20:35;;;;;;;0.00;0.00;;;24.90;99.90;;;;;;5019311;28;20486;-68
2022/06/05 11:23:09;;;;;;;0.00;0.00;;;24.80;99.90;;;;;;5018199;28;20045;-68
2022/06/05 11:26:00;;;;;;;0.00;0.00;;;24.70;99.90;;;;;;5019950;28;20436;-68
2022/06/05 11:28:56;;;;;;;0.00;0.00;;;24.70;99.90;;;;;;5018704;28;20045;-52
2022/06/05 11:31:50;;;;;;;0.00;0.00;;;24.60;99.90;;;;;;5018827;28;20420;-66
2022/06/05 11:34:43;;;;;;;0.00;0.00;;;24.40;99.90;;;;;;5019328;28;20459;-64
2022/06/05 11:37:24;;;;;;;0.00;0.00;;;24.60;99.90;;;;;;5020130;28;20053;-65
2022/06/05 11:40:01;;;;;;;0.00;0.00;;;24.70;99.90;;;;;;5019797;28;20057;-65
2022/06/05 11:42:34;;;;;;;0.00;0.00;;;24.70;99.90;;;;;;5019761;28;20515;-64
2022/06/05 11:45:19;;;;;;;0.03;0.03;;;24.60;99.90;;;;;;5022166;28;20115;-64
2022/06/05 11:47:56;;;;;;;0.22;0.08;;;24.60;99.90;;;;;;5032568;28;20048;-65
2022/06/05 11:50:30;;;;;;;0.15;0.13;;;24.60;99.90;;;;;;5038307;28;20495;-64
2022/06/05 11:53:22;;;;;;;0.22;0.13;;;24.70;99.90;;;;;;5037294;28;20045;-65
2022/06/05 11:56:06;;;;;;;0.00;0.00;;;24.50;99.90;;;;;;5039871;28;20045;-64
2022/06/05 11:58:46;;;;;;;0.20;0.20;;;24.50;99.90;;;;;;5039429;28;20178;-64
2022/06/05 12:01:17;;;;;;;0.00;0.00;;;24.60;99.90;;;;;;5040142;28;20059;-65
2022/06/05 12:04:20;;;;;;;0.10;0.10;;;24.40;99.90;;;;;;5039116;28;20057;-64
2022/06/05 12:06:55;;;;;;;0.10;0.10;;;24.30;99.90;;;;;;5039016;28;20056;-63
2022/06/05 12:09:25;;;;;;;0.00;0.00;;;24.40;99.90;;;;;;5038204;28;20074;-65
2022/06/05 12:11:53;;;;;;;0.17;0.10;;;24.40;99.90;;;;;;5043533;28;20174;-65
2022/06/05 12:14:49;;;;;;;0.35;0.03;;;24.40;99.90;;;;;;5042563;28;20079;-66
2022/06/05 12:17:28;;;;;;;0.35;0.30;;;24.30;99.90;;;;;;5043534;28;20530;-64
2022/06/05 12:20:31;;;;;;;0.00;0.00;;;24.10;99.90;;;;;;5042080;28;20124;-64
2022/06/05 12:23:33;;;;;;;0.00;0.00;;;24.10;99.90;;;;;;5042697;28;20045;-64
2022/06/05 12:26:13;;;;;;;0.10;0.10;;;24.10;99.90;;;;;;5042422;28;20056;-64
2022/06/05 12:28:43;;;;;;;0.00;0.00;;;24.20;99.90;;;;;;5042660;28;20125;-64
2022/06/05 12:31:17;;;;;;;0.10;0.10;;;24.30;99.90;;;;;;5043081;28;20049;-64
2022/06/05 12:33:49;;;;;;;0.00;0.00;;;24.30;99.90;;;;;;5042427;28;20388;-64
2022/06/05 12:36:39;;;;;;;0.15;0.05;;;24.30;99.90;;;;;;5043308;28;20060;-65
2022/06/05 12:39:16;;;;;;;0.00;0.00;;;24.30;99.90;;;;;;5022678;28;20690;-64
2022/06/05 12:41:53;;;;;;;0.08;0.08;;;24.30;99.90;;;;;;5043144;28;20770;-64
2022/06/05 12:44:29;;;;;;;0.00;0.00;;;24.30;99.90;;;;;;5040332;28;20228;-65
2022/06/05 12:47:27;;;;;;;0.10;0.10;;;24.20;99.90;;;;;;5031633;28;20041;-65
2022/06/05 12:49:55;;;;;;;0.90;0.20;;;24.10;99.90;;;;;;5020765;28;20383;-67
2022/06/05 12:52:38;;;;;;;0.00;0.00;;;24.10;99.90;;;;;;5022578;28;20562;-65
2022/06/05 12:55:16;;;;;;;0.00;0.00;;;24.10;99.90;;;;;;5022520;28;20050;-64
2022/06/05 12:57:45;;;;;;;0.00;0.00;;;24.10;99.90;;;;;;5024593;28;20042;-63
2022/06/05 13:00:13;;;;;;;0.00;0.00;;;24.10;99.90;;;;;;5021452;28;20060;-64
2022/06/05 13:02:54;;;;;;;0.00;0.00;;;24.20;99.90;;;;;;5022298;28;20038;-65
2022/06/05 13:05:43;;;;;;;0.10;0.03;;;24.20;99.90;;;;;;5027774;28;20063;-65
2022/06/05 13:08:31;;;;;;;0.00;0.00;;;24.10;99.90;;;;;;5031404;28;20032;-66
2022/06/05 13:11:04;;;;;;;0.00;0.00;;;24.10;99.90;;;;;;5031127;28;20106;-65
2022/06/05 13:13:40;;;;;;;0.00;0.00;;;24.10;99.90;;;;;;5029367;28;20044;-64
2022/06/05 13:16:23;;;;;;;0.10;0.00;;;24.10;99.90;;;;;;5024963;28;20068;-65
2022/06/05 13:19:18;;;;;;;0.00;0.00;;;24.10;99.90;;;;;;5026603;28;20128;-64
2022/06/05 13:21:49;;;;;;;;;;;24.00;99.90;;;;;;5027262;28;20072;-64
2022/06/05 13:24:40;;;;;;;0.00;0.00;;;24.10;99.90;;;;;;5029886;28;19921;-65
2022/06/05 13:27:15;;;;;;;0.00;0.00;;;24.10;99.90;;;;;;5026606;28;20052;-62
2022/06/05 13:29:46;;;;;;;0.00;0.00;;;24.10;99.90;;;;;;5027292;28;20040;-66
2022/06/05 13:32:39;;;;;;;0.00;0.00;;;24.10;99.90;;;;;;5027270;28;20158;-66